sensor_id;sensor_type;location;lat;lon;timestamp;temperature;humidity
54272;DHT22;40184;53.362;5.216;2022-09-12T00:03:30;18.70;99.90
54272;DHT22;40184;53.362;5.216;2022-09-12T00:05:56;18.40;99.90
54272;DHT22;40184;53.362;5.216;2022-09-12T00:08:22;18.40;99.90
54272;DHT22;40184;53.362;5.216;2022-09-12T00:10:47;18.20;99.90
54272;DHT22;40184;53.362;5.216;2022-09-12T00:13:13;18.40;99.90
54272;DHT22;40184;53.362;5.216;2022-09-12T00:15:41;18.30;99.90
54272;DHT22;40184;53.362;5.216;2022-09-12T00:18:14;18.30;99.90
54272;DHT22;40184;53.362;5.216;2022-09-12T00:20:45;18.30;99.90
54272;DHT22;40184;53.362;5.216;2022-09-12T00:23:11;18.20;99.90
54272;DHT22;40184;53.362;5.216;2022-09-12T00:25:46;18.50;99.90
54272;DHT22;40184;53.362;5.216;2022-09-12T00:28:13;18.60;99.90
54272;DHT22;40184;53.362;5.216;2022-09-12T00:30:44;18.50;99.90
54272;DHT22;40184;53.362;5.216;2022-09-12T00:33:10;18.10;99.90
54272;DHT22;40184;53.362;5.216;2022-09-12T00:35:46;18.10;99.90
54272;DHT22;40184;53.362;5.216;2022-09-12T00:38:13;18.30;99.90
54272;DHT22;40184;53.362;5.216;2022-09-12T00:40:39;18.40;99.90
54272;DHT22;40184;53.362;5.216;2022-09-12T00:43:11;18.10;99.90
54272;DHT22;40184;53.362;5.216;2022-09-12T00:45:37;18.10;99.90
54272;DHT22;40184;53.362;5.216;2022-09-12T00:48:03;18.30;99.90
54272;DHT22;40184;53.362;5.216;2022-09-12T00:50:31;18.00;99.90
54272;DHT22;40184;53.362;5.216;2022-09-12T00:53:04;18.40;99.90
54272;DHT22;40184;53.362;5.216;2022-09-12T00:55:42;18.00;99.90
54272;DHT22;40184;53.362;5.216;2022-09-12T00:58:12;18.10;99.90
54272;DHT22;40184;53.362;5.216;2022-09-12T01:00:39;18.50;99.90
54272;DHT22;40184;53.362;5.216;2022-09-12T01:03:11;18.40;99.90
54272;DHT22;40184;53.362;5.216;2022-09-12T01:05:43;17.90;99.90
54272;DHT22;40184;53.362;5.216;2022-09-12T01:08:11;18.20;99.90
54272;DHT22;40184;53.362;5.216;2022-09-12T01:10:38;18.00;99.90
54272;DHT22;40184;53.362;5.216;2022-09-12T01:13:07;18.30;99.90
54272;DHT22;40184;53.362;5.216;2022-09-12T01:15:36;18.30;99.90
54272;DHT22;40184;53.362;5.216;2022-09-12T01:18:28;18.20;99.90
54272;DHT22;40184;53.362;5.216;2022-09-12T01:24:06;18.50;99.90
54272;DHT22;40184;53.362;5.216;2022-09-12T01:29:40;17.90;99.90
54272;DHT22;40184;53.362;5.216;2022-09-12T01:35:09;18.30;99.90
54272;DHT22;40184;53.362;5.216;2022-09-12T01:43:54;18.20;99.90
54272;DHT22;40184;53.362;5.216;2022-09-12T01:47:04;18.00;99.90
54272;DHT22;40184;53.362;5.216;2022-09-12T01:50:00;18.00;99.90
54272;DHT22;40184;53.362;5.216;2022-09-12T01:52:58;17.90;99.90
54272;DHT22;40184;53.362;5.216;2022-09-12T01:55:39;18.30;99.90
54272;DHT22;40184;53.362;5.216;2022-09-12T02:00:39;17.90;99.90
54272;DHT22;40184;53.362;5.216;2022-09-12T02:03:11;18.40;99.90
54272;DHT22;40184;53.362;5.216;2022-09-12T02:05:48;17.90;99.90
54272;DHT22;40184;53.362;5.216;2022-09-12T02:08:19;18.00;99.90
54272;DHT22;40184;53.362;5.216;2022-09-12T02:10:59;18.20;99.90
54272;DHT22;40184;53.362;5.216;2022-09-12T02:13:55;17.90;99.90
54272;DHT22;40184;53.362;5.216;2022-09-12T02:16:28;18.00;99.90
54272;DHT22;40184;53.362;5.216;2022-09-12T02:19:17;18.00;99.90
54272;DHT22;40184;53.362;5.216;2022-09-12T02:21:54;18.20;99.90
54272;DHT22;40184;53.362;5.216;2022-09-12T02:24:24;18.40;99.90
54272;DHT22;40184;53.362;5.216;2022-09-12T02:26:54;18.00;99.90
54272;DHT22;40184;53.362;5.216;2022-09-12T02:29:21;18.30;99.90
54272;DHT22;40184;53.362;5.216;2022-09-12T02:31:50;18.00;99.90
54272;DHT22;40184;53.362;5.216;2022-09-12T02:37:14;17.90;99.90
54272;DHT22;40184;53.362;5.216;2022-09-12T02:39:43;18.00;99.90
54272;DHT22;40184;53.362;5.216;2022-09-12T02:42:08;18.40;99.90
54272;DHT22;40184;53.362;5.216;2022-09-12T02:44:35;18.20;99.90
54272;DHT22;40184;53.362;5.216;2022-09-12T02:47:05;18.10;99.90
54272;DHT22;40184;53.362;5.216;2022-09-12T02:49:33;18.40;99.90
54272;DHT22;40184;53.362;5.216;2022-09-12T02:52:00;18.30;99.90
54272;DHT22;40184;53.362;5.216;2022-09-12T02:54:26;18.00;99.90
54272;DHT22;40184;53.362;5.216;2022-09-12T02:56:52;18.50;99.90
54272;DHT22;40184;53.362;5.216;2022-09-12T02:59:20;18.30;99.90
54272;DHT22;40184;53.362;5.216;2022-09-12T03:07:25;18.10;99.90
54272;DHT22;40184;53.362;5.216;2022-09-12T03:10:18;18.10;99.90
54272;DHT22;40184;53.362;5.216;2022-09-12T03:29:07;18.70;99.90
54272;DHT22;40184;53.362;5.216;2022-09-12T03:31:33;18.40;99.90
54272;DHT22;40184;53.362;5.216;2022-09-12T03:34:00;18.70;99.90
54272;DHT22;40184;53.362;5.216;2022-09-12T03:36:27;18.70;99.90
54272;DHT22;40184;53.362;5.216;2022-09-12T03:38:54;18.50;99.90
54272;DHT22;40184;53.362;5.216;2022-09-12T03:41:20;18.40;99.90
54272;DHT22;40184;53.362;5.216;2022-09-12T03:43:46;18.10;99.90
54272;DHT22;40184;53.362;5.216;2022-09-12T03:46:12;18.60;99.90
54272;DHT22;40184;53.362;5.216;2022-09-12T03:48:38;18.20;99.90
54272;DHT22;40184;53.362;5.216;2022-09-12T03:51:07;18.40;99.90
54272;DHT22;40184;53.362;5.216;2022-09-12T03:53:33;18.50;99.90
54272;DHT22;40184;53.362;5.216;2022-09-12T03:55:59;18.20;99.90
54272;DHT22;40184;53.362;5.216;2022-09-12T03:58:29;18.10;99.90
54272;DHT22;40184;53.362;5.216;2022-09-12T04:00:55;18.40;99.90
54272;DHT22;40184;53.362;5.216;2022-09-12T04:03:21;18.30;99.90
54272;DHT22;40184;53.362;5.216;2022-09-12T04:05:47;18.10;99.90
54272;DHT22;40184;53.362;5.216;2022-09-12T04:08:13;18.40;99.90
54272;DHT22;40184;53.362;5.216;2022-09-12T04:10:39;18.60;99.90
54272;DHT22;40184;53.362;5.216;2022-09-12T04:13:04;18.60;99.90
54272;DHT22;40184;53.362;5.216;2022-09-12T04:15:30;18.10;99.90
54272;DHT22;40184;53.362;5.216;2022-09-12T04:17:56;18.50;99.90
54272;DHT22;40184;53.362;5.216;2022-09-12T04:20:22;18.60;99.90
54272;DHT22;40184;53.362;5.216;2022-09-12T04:22:48;18.50;99.90
54272;DHT22;40184;53.362;5.216;2022-09-12T04:25:13;18.20;99.90
54272;DHT22;40184;53.362;5.216;2022-09-12T04:27:39;18.10;99.90
54272;DHT22;40184;53.362;5.216;2022-09-12T04:30:06;18.20;99.90
54272;DHT22;40184;53.362;5.216;2022-09-12T04:32:33;18.70;99.90
54272;DHT22;40184;53.362;5.216;2022-09-12T04:34:59;18.40;99.90
54272;DHT22;40184;53.362;5.216;2022-09-12T04:37:25;18.20;99.90
54272;DHT22;40184;53.362;5.216;2022-09-12T04:39:51;18.20;99.90
54272;DHT22;40184;53.362;5.216;2022-09-12T04:42:22;18.40;99.90
54272;DHT22;40184;53.362;5.216;2022-09-12T04:44:48;18.70;99.90
54272;DHT22;40184;53.362;5.216;2022-09-12T04:47:14;18.60;99.90
54272;DHT22;40184;53.362;5.216;2022-09-12T04:49:41;18.40;99.90
54272;DHT22;40184;53.362;5.216;2022-09-12T04:52:06;18.70;99.90
54272;DHT22;40184;53.362;5.216;2022-09-12T04:54:32;18.20;99.90
54272;DHT22;40184;53.362;5.216;2022-09-12T04:56:58;18.50;99.90
54272;DHT22;40184;53.362;5.216;2022-09-12T04:59:24;18.70;99.90
54272;DHT22;40184;53.362;5.216;2022-09-12T05:01:50;18.40;99.90
54272;DHT22;40184;53.362;5.216;2022-09-12T05:04:16;18.20;99.90
54272;DHT22;40184;53.362;5.216;2022-09-12T05:06:42;18.40;99.90
54272;DHT22;40184;53.362;5.216;2022-09-12T05:09:10;18.70;99.90
54272;DHT22;40184;53.362;5.216;2022-09-12T05:11:38;18.50;99.90
54272;DHT22;40184;53.362;5.216;2022-09-12T05:14:04;18.20;99.90
54272;DHT22;40184;53.362;5.216;2022-09-12T05:16:30;18.00;99.90
54272;DHT22;40184;53.362;5.216;2022-09-12T05:18:57;18.30;99.90
54272;DHT22;40184;53.362;5.216;2022-09-12T05:21:24;18.50;99.90
54272;DHT22;40184;53.362;5.216;2022-09-12T05:23:54;18.00;99.90
54272;DHT22;40184;53.362;5.216;2022-09-12T05:26:21;18.10;99.90
54272;DHT22;40184;53.362;5.216;2022-09-12T05:28:48;18.10;99.90
54272;DHT22;40184;53.362;5.216;2022-09-12T05:31:20;18.40;99.90
54272;DHT22;40184;53.362;5.216;2022-09-12T05:33:46;18.50;99.90
54272;DHT22;40184;53.362;5.216;2022-09-12T05:36:18;18.30;99.90
54272;DHT22;40184;53.362;5.216;2022-09-12T05:38:44;18.30;99.90
54272;DHT22;40184;53.362;5.216;2022-09-12T05:41:14;18.50;99.90
54272;DHT22;40184;53.362;5.216;2022-09-12T05:43:41;18.30;99.90
54272;DHT22;40184;53.362;5.216;2022-09-12T05:46:12;18.00;99.90
54272;DHT22;40184;53.362;5.216;2022-09-12T05:48:40;18.50;99.90
54272;DHT22;40184;53.362;5.216;2022-09-12T05:51:14;18.20;99.90
54272;DHT22;40184;53.362;5.216;2022-09-12T05:53:46;18.30;99.90
54272;DHT22;40184;53.362;5.216;2022-09-12T05:56:15;18.40;99.90
54272;DHT22;40184;53.362;5.216;2022-09-12T05:58:44;18.60;99.90
54272;DHT22;40184;53.362;5.216;2022-09-12T06:01:14;18.40;99.90
54272;DHT22;40184;53.362;5.216;2022-09-12T06:03:45;18.40;99.90
54272;DHT22;40184;53.362;5.216;2022-09-12T06:06:12;18.70;99.90
54272;DHT22;40184;53.362;5.216;2022-09-12T06:08:40;18.20;99.90
54272;DHT22;40184;53.362;5.216;2022-09-12T06:11:08;18.20;99.90
54272;DHT22;40184;53.362;5.216;2022-09-12T06:13:35;18.60;99.90
54272;DHT22;40184;53.362;5.216;2022-09-12T06:16:07;18.40;99.90
54272;DHT22;40184;53.362;5.216;2022-09-12T06:18:34;18.30;99.90
54272;DHT22;40184;53.362;5.216;2022-09-12T06:21:10;18.30;99.90
54272;DHT22;40184;53.362;5.216;2022-09-12T06:23:37;18.60;99.90
54272;DHT22;40184;53.362;5.216;2022-09-12T06:26:04;18.50;99.90
54272;DHT22;40184;53.362;5.216;2022-09-12T06:28:30;18.60;99.90
54272;DHT22;40184;53.362;5.216;2022-09-12T06:31:14;18.60;99.90
54272;DHT22;40184;53.362;5.216;2022-09-12T06:33:43;18.80;99.90
54272;DHT22;40184;53.362;5.216;2022-09-12T06:36:13;18.60;99.90
54272;DHT22;40184;53.362;5.216;2022-09-12T06:38:40;18.40;99.90
54272;DHT22;40184;53.362;5.216;2022-09-12T06:41:08;18.40;99.90
54272;DHT22;40184;53.362;5.216;2022-09-12T06:43:34;18.80;99.90
54272;DHT22;40184;53.362;5.216;2022-09-12T06:46:00;18.70;99.90
54272;DHT22;40184;53.362;5.216;2022-09-12T06:48:26;18.80;99.90
54272;DHT22;40184;53.362;5.216;2022-09-12T06:51:02;18.80;99.90
54272;DHT22;40184;53.362;5.216;2022-09-12T06:53:29;18.90;99.90
54272;DHT22;40184;53.362;5.216;2022-09-12T06:55:59;19.00;99.90
54272;DHT22;40184;53.362;5.216;2022-09-12T06:58:28;19.10;99.90
54272;DHT22;40184;53.362;5.216;2022-09-12T07:03:31;19.30;99.90
54272;DHT22;40184;53.362;5.216;2022-09-12T07:06:00;19.30;99.90
54272;DHT22;40184;53.362;5.216;2022-09-12T07:08:26;19.30;99.90
54272;DHT22;40184;53.362;5.216;2022-09-12T07:10:57;19.00;99.90
54272;DHT22;40184;53.362;5.216;2022-09-12T07:13:24;19.00;99.90
54272;DHT22;40184;53.362;5.216;2022-09-12T07:15:49;19.40;99.90
54272;DHT22;40184;53.362;5.216;2022-09-12T07:18:16;19.50;99.90
54272;DHT22;40184;53.362;5.216;2022-09-12T07:20:42;19.10;99.90
54272;DHT22;40184;53.362;5.216;2022-09-12T07:23:07;19.20;99.90
54272;DHT22;40184;53.362;5.216;2022-09-12T07:25:33;19.50;99.90
54272;DHT22;40184;53.362;5.216;2022-09-12T07:27:59;19.70;99.90
54272;DHT22;40184;53.362;5.216;2022-09-12T07:30:24;19.70;99.90
54272;DHT22;40184;53.362;5.216;2022-09-12T07:32:53;19.80;99.90
54272;DHT22;40184;53.362;5.216;2022-09-12T07:35:20;19.50;99.90
54272;DHT22;40184;53.362;5.216;2022-09-12T07:37:46;19.70;99.90
54272;DHT22;40184;53.362;5.216;2022-09-12T07:40:12;19.90;99.90
54272;DHT22;40184;53.362;5.216;2022-09-12T07:42:37;20.10;99.90
54272;DHT22;40184;53.362;5.216;2022-09-12T07:45:03;19.80;99.90
54272;DHT22;40184;53.362;5.216;2022-09-12T07:47:28;19.70;99.90
54272;DHT22;40184;53.362;5.216;2022-09-12T07:49:54;20.10;99.90
54272;DHT22;40184;53.362;5.216;2022-09-12T07:52:20;20.00;99.90
54272;DHT22;40184;53.362;5.216;2022-09-12T07:54:46;20.00;99.90
54272;DHT22;40184;53.362;5.216;2022-09-12T07:57:12;19.90;99.90
54272;DHT22;40184;53.362;5.216;2022-09-12T07:59:37;20.20;99.90
54272;DHT22;40184;53.362;5.216;2022-09-12T08:02:11;20.30;99.90
54272;DHT22;40184;53.362;5.216;2022-09-12T08:04:38;20.20;99.90
54272;DHT22;40184;53.362;5.216;2022-09-12T08:07:04;20.10;99.90
54272;DHT22;40184;53.362;5.216;2022-09-12T08:09:31;20.40;99.90
54272;DHT22;40184;53.362;5.216;2022-09-12T08:11:56;20.00;99.90
54272;DHT22;40184;53.362;5.216;2022-09-12T08:14:22;20.50;99.90
54272;DHT22;40184;53.362;5.216;2022-09-12T08:16:48;20.20;99.90
54272;DHT22;40184;53.362;5.216;2022-09-12T08:19:13;20.80;99.90
54272;DHT22;40184;53.362;5.216;2022-09-12T08:21:39;21.00;99.90
54272;DHT22;40184;53.362;5.216;2022-09-12T08:24:05;20.70;99.90
54272;DHT22;40184;53.362;5.216;2022-09-12T08:26:32;21.00;99.90
54272;DHT22;40184;53.362;5.216;2022-09-12T08:28:58;20.90;99.90
54272;DHT22;40184;53.362;5.216;2022-09-12T08:31:25;20.80;99.90
54272;DHT22;40184;53.362;5.216;2022-09-12T08:33:54;20.70;99.90
54272;DHT22;40184;53.362;5.216;2022-09-12T08:36:22;20.60;99.90
54272;DHT22;40184;53.362;5.216;2022-09-12T08:38:57;20.60;99.90
54272;DHT22;40184;53.362;5.216;2022-09-12T08:41:31;20.80;99.90
54272;DHT22;40184;53.362;5.216;2022-09-12T08:50:00;21.00;99.90
54272;DHT22;40184;53.362;5.216;2022-09-12T08:52:32;20.60;99.90
54272;DHT22;40184;53.362;5.216;2022-09-12T08:55:01;20.60;99.90
54272;DHT22;40184;53.362;5.216;2022-09-12T08:57:27;20.60;99.90
54272;DHT22;40184;53.362;5.216;2022-09-12T08:59:52;21.00;99.90
54272;DHT22;40184;53.362;5.216;2022-09-12T09:18:53;21.20;99.90
54272;DHT22;40184;53.362;5.216;2022-09-12T09:21:39;21.10;99.90
54272;DHT22;40184;53.362;5.216;2022-09-12T09:24:10;21.10;99.90
54272;DHT22;40184;53.362;5.216;2022-09-12T09:27:02;21.40;99.90
54272;DHT22;40184;53.362;5.216;2022-09-12T09:29:43;21.70;99.90
54272;DHT22;40184;53.362;5.216;2022-09-12T09:32:27;21.80;99.90
54272;DHT22;40184;53.362;5.216;2022-09-12T09:34:54;21.80;99.90
54272;DHT22;40184;53.362;5.216;2022-09-12T09:42:59;21.90;99.90
54272;DHT22;40184;53.362;5.216;2022-09-12T09:45:26;22.30;99.90
54272;DHT22;40184;53.362;5.216;2022-09-12T09:47:58;22.20;99.90
54272;DHT22;40184;53.362;5.216;2022-09-12T09:50:26;22.40;99.90
54272;DHT22;40184;53.362;5.216;2022-09-12T09:52:53;22.50;99.90
54272;DHT22;40184;53.362;5.216;2022-09-12T09:55:24;22.20;99.90
54272;DHT22;40184;53.362;5.216;2022-09-12T09:57:50;22.30;99.90
54272;DHT22;40184;53.362;5.216;2022-09-12T10:00:35;22.50;99.90
54272;DHT22;40184;53.362;5.216;2022-09-12T10:05:47;22.90;99.90
54272;DHT22;40184;53.362;5.216;2022-09-12T10:08:32;22.90;99.90
54272;DHT22;40184;53.362;5.216;2022-09-12T10:11:02;22.60;99.90
54272;DHT22;40184;53.362;5.216;2022-09-12T10:13:55;23.00;99.90
54272;DHT22;40184;53.362;5.216;2022-09-12T10:16:33;23.10;99.90
54272;DHT22;40184;53.362;5.216;2022-09-12T10:19:01;22.80;99.90
54272;DHT22;40184;53.362;5.216;2022-09-12T10:21:53;23.00;99.90
54272;DHT22;40184;53.362;5.216;2022-09-12T10:24:24;23.10;99.90
54272;DHT22;40184;53.362;5.216;2022-09-12T10:27:11;23.50;99.90
54272;DHT22;40184;53.362;5.216;2022-09-12T10:32:10;23.50;99.90
54272;DHT22;40184;53.362;5.216;2022-09-12T10:34:43;23.50;99.90
54272;DHT22;40184;53.362;5.216;2022-09-12T10:37:35;23.50;99.90
54272;DHT22;40184;53.362;5.216;2022-09-12T10:40:03;23.30;99.90
54272;DHT22;40184;53.362;5.216;2022-09-12T10:47:47;23.00;99.90
54272;DHT22;40184;53.362;5.216;2022-09-12T10:52:52;22.90;99.90
54272;DHT22;40184;53.362;5.216;2022-09-12T10:55:21;23.00;99.90
54272;DHT22;40184;53.362;5.216;2022-09-12T11:00:21;22.80;99.90
54272;DHT22;40184;53.362;5.216;2022-09-12T11:03:14;22.70;99.90
54272;DHT22;40184;53.362;5.216;2022-09-12T11:05:54;22.60;99.90
54272;DHT22;40184;53.362;5.216;2022-09-12T11:11:24;22.70;99.90
54272;DHT22;40184;53.362;5.216;2022-09-12T11:16:36;22.70;99.90
54272;DHT22;40184;53.362;5.216;2022-09-12T11:19:15;22.60;99.90
54272;DHT22;40184;53.362;5.216;2022-09-12T11:21:46;22.70;99.90
54272;DHT22;40184;53.362;5.216;2022-09-12T11:30:12;22.90;99.90
54272;DHT22;40184;53.362;5.216;2022-09-12T11:35:37;23.10;99.90
54272;DHT22;40184;53.362;5.216;2022-09-12T11:46:34;23.10;99.90
54272;DHT22;40184;53.362;5.216;2022-09-12T11:49:09;23.30;99.90
54272;DHT22;40184;53.362;5.216;2022-09-12T11:51:59;23.20;99.90
54272;DHT22;40184;53.362;5.216;2022-09-12T11:54:43;23.60;99.90
54272;DHT22;40184;53.362;5.216;2022-09-12T11:57:19;23.80;99.90
54272;DHT22;40184;53.362;5.216;2022-09-12T12:02:30;23.80;99.90
54272;DHT22;40184;53.362;5.216;2022-09-12T12:08:00;24.00;99.90
54272;DHT22;40184;53.362;5.216;2022-09-12T12:10:42;23.90;99.90
54272;DHT22;40184;53.362;5.216;2022-09-12T12:13:18;24.00;99.90
54272;DHT22;40184;53.362;5.216;2022-09-12T12:15:47;23.90;99.90
54272;DHT22;40184;53.362;5.216;2022-09-12T12:18:21;23.80;99.90
54272;DHT22;40184;53.362;5.216;2022-09-12T12:20:49;23.70;99.90
54272;DHT22;40184;53.362;5.216;2022-09-12T12:23:33;23.60;99.90
54272;DHT22;40184;53.362;5.216;2022-09-12T12:26:00;23.70;99.90
54272;DHT22;40184;53.362;5.216;2022-09-12T12:31:13;23.90;99.90
54272;DHT22;40184;53.362;5.216;2022-09-12T12:33:51;24.10;99.90
54272;DHT22;40184;53.362;5.216;2022-09-12T12:36:35;24.30;99.90
54272;DHT22;40184;53.362;5.216;2022-09-12T12:41:57;24.40;99.90
54272;DHT22;40184;53.362;5.216;2022-09-12T12:47:20;24.80;99.90
54272;DHT22;40184;53.362;5.216;2022-09-12T12:55:15;24.40;99.90
54272;DHT22;40184;53.362;5.216;2022-09-12T12:57:50;24.40;99.90
54272;DHT22;40184;53.362;5.216;2022-09-12T13:05:25;24.60;99.90
54272;DHT22;40184;53.362;5.216;2022-09-12T13:07:59;24.80;99.90
54272;DHT22;40184;53.362;5.216;2022-09-12T13:10:28;25.00;99.90
54272;DHT22;40184;53.362;5.216;2022-09-12T13:13:01;25.00;99.90
54272;DHT22;40184;53.362;5.216;2022-09-12T13:18:03;24.80;99.90
54272;DHT22;40184;53.362;5.216;2022-09-12T13:20:32;24.70;99.90
54272;DHT22;40184;53.362;5.216;2022-09-12T13:23:00;24.70;99.90
54272;DHT22;40184;53.362;5.216;2022-09-12T13:25:36;24.70;99.90
54272;DHT22;40184;53.362;5.216;2022-09-12T13:28:15;24.90;99.90
54272;DHT22;40184;53.362;5.216;2022-09-12T13:30:58;25.10;99.90
54272;DHT22;40184;53.362;5.216;2022-09-12T13:36:31;25.40;99.90
54272;DHT22;40184;53.362;5.216;2022-09-12T13:44:26;25.90;99.90
54272;DHT22;40184;53.362;5.216;2022-09-12T13:46:53;26.10;99.90
54272;DHT22;40184;53.362;5.216;2022-09-12T13:49:34;26.30;99.90
54272;DHT22;40184;53.362;5.216;2022-09-12T13:52:07;26.40;99.90
54272;DHT22;40184;53.362;5.216;2022-09-12T13:54:35;26.10;99.90
54272;DHT22;40184;53.362;5.216;2022-09-12T13:57:03;25.70;99.90
54272;DHT22;40184;53.362;5.216;2022-09-12T13:59:37;25.30;99.90
54272;DHT22;40184;53.362;5.216;2022-09-12T14:02:19;25.00;99.90
54272;DHT22;40184;53.362;5.216;2022-09-12T14:04:50;24.60;99.90
54272;DHT22;40184;53.362;5.216;2022-09-12T14:10:36;24.30;99.90
54272;DHT22;40184;53.362;5.216;2022-09-12T14:13:08;24.30;99.90
54272;DHT22;40184;53.362;5.216;2022-09-12T14:15:36;24.20;99.90
54272;DHT22;40184;53.362;5.216;2022-09-12T14:18:04;24.10;99.90
54272;DHT22;40184;53.362;5.216;2022-09-12T14:20:35;23.90;99.90
54272;DHT22;40184;53.362;5.216;2022-09-12T14:23:22;23.70;99.90
54272;DHT22;40184;53.362;5.216;2022-09-12T14:25:48;23.60;99.90
54272;DHT22;40184;53.362;5.216;2022-09-12T14:28:16;23.50;99.90
54272;DHT22;40184;53.362;5.216;2022-09-12T14:30:59;23.50;99.90
54272;DHT22;40184;53.362;5.216;2022-09-12T14:33:26;23.40;99.90
54272;DHT22;40184;53.362;5.216;2022-09-12T14:36:19;23.20;99.90
54272;DHT22;40184;53.362;5.216;2022-09-12T14:38:49;23.10;99.90
54272;DHT22;40184;53.362;5.216;2022-09-12T14:41:42;23.10;99.90
54272;DHT22;40184;53.362;5.216;2022-09-12T14:44:16;23.00;99.90
54272;DHT22;40184;53.362;5.216;2022-09-12T14:46:42;22.90;99.90
54272;DHT22;40184;53.362;5.216;2022-09-12T14:49:31;22.80;99.90
54272;DHT22;40184;53.362;5.216;2022-09-12T14:52:22;22.80;99.90
54272;DHT22;40184;53.362;5.216;2022-09-12T14:57:41;22.80;99.90
54272;DHT22;40184;53.362;5.216;2022-09-12T15:02:41;22.80;99.90
54272;DHT22;40184;53.362;5.216;2022-09-12T15:10:02;23.00;99.90
54272;DHT22;40184;53.362;5.216;2022-09-12T15:12:28;23.00;99.90
54272;DHT22;40184;53.362;5.216;2022-09-12T15:15:03;23.20;99.90
54272;DHT22;40184;53.362;5.216;2022-09-12T15:17:31;23.20;99.90
54272;DHT22;40184;53.362;5.216;2022-09-12T15:19:56;23.20;99.90
54272;DHT22;40184;53.362;5.216;2022-09-12T15:22:23;23.10;99.90
54272;DHT22;40184;53.362;5.216;2022-09-12T15:24:50;23.00;99.90
54272;DHT22;40184;53.362;5.216;2022-09-12T15:27:15;22.90;99.90
54272;DHT22;40184;53.362;5.216;2022-09-12T15:29:41;22.90;99.90
54272;DHT22;40184;53.362;5.216;2022-09-12T15:32:12;22.90;99.90
54272;DHT22;40184;53.362;5.216;2022-09-12T15:34:39;22.90;99.90
54272;DHT22;40184;53.362;5.216;2022-09-12T15:37:11;23.00;99.90
54272;DHT22;40184;53.362;5.216;2022-09-12T15:39:38;23.00;99.90
54272;DHT22;40184;53.362;5.216;2022-09-12T15:42:03;22.90;99.90
54272;DHT22;40184;53.362;5.216;2022-09-12T15:44:29;22.90;99.90
54272;DHT22;40184;53.362;5.216;2022-09-12T15:46:55;22.80;99.90
54272;DHT22;40184;53.362;5.216;2022-09-12T15:49:20;22.80;99.90
54272;DHT22;40184;53.362;5.216;2022-09-12T15:51:46;22.80;99.90
54272;DHT22;40184;53.362;5.216;2022-09-12T15:54:13;22.70;99.90
54272;DHT22;40184;53.362;5.216;2022-09-12T15:56:39;22.70;99.90
54272;DHT22;40184;53.362;5.216;2022-09-12T15:59:05;22.70;99.90
54272;DHT22;40184;53.362;5.216;2022-09-12T16:01:30;22.70;99.90
54272;DHT22;40184;53.362;5.216;2022-09-12T16:03:56;22.70;99.90
54272;DHT22;40184;53.362;5.216;2022-09-12T16:06:23;22.60;99.90
54272;DHT22;40184;53.362;5.216;2022-09-12T16:08:48;22.70;99.90
54272;DHT22;40184;53.362;5.216;2022-09-12T16:11:25;22.60;99.90
54272;DHT22;40184;53.362;5.216;2022-09-12T16:13:51;22.60;99.90
54272;DHT22;40184;53.362;5.216;2022-09-12T16:16:18;22.60;99.90
54272;DHT22;40184;53.362;5.216;2022-09-12T16:18:43;22.50;99.90
54272;DHT22;40184;53.362;5.216;2022-09-12T16:21:09;22.40;99.90
54272;DHT22;40184;53.362;5.216;2022-09-12T16:23:35;22.30;99.90
54272;DHT22;40184;53.362;5.216;2022-09-12T16:26:03;22.30;99.90
54272;DHT22;40184;53.362;5.216;2022-09-12T16:28:29;22.20;99.90
54272;DHT22;40184;53.362;5.216;2022-09-12T16:30:59;22.20;99.90
54272;DHT22;40184;53.362;5.216;2022-09-12T16:33:25;22.10;99.90
54272;DHT22;40184;53.362;5.216;2022-09-12T16:35:51;22.00;99.90
54272;DHT22;40184;53.362;5.216;2022-09-12T16:38:20;22.00;99.90
54272;DHT22;40184;53.362;5.216;2022-09-12T16:40:46;21.90;99.90
54272;DHT22;40184;53.362;5.216;2022-09-12T16:43:11;21.80;99.90
54272;DHT22;40184;53.362;5.216;2022-09-12T16:45:38;21.70;99.90
54272;DHT22;40184;53.362;5.216;2022-09-12T16:48:03;21.70;99.90
54272;DHT22;40184;53.362;5.216;2022-09-12T16:50:29;21.60;99.90
54272;DHT22;40184;53.362;5.216;2022-09-12T16:52:54;21.60;99.90
54272;DHT22;40184;53.362;5.216;2022-09-12T16:55:20;21.60;99.90
54272;DHT22;40184;53.362;5.216;2022-09-12T16:57:46;21.60;99.90
54272;DHT22;40184;53.362;5.216;2022-09-12T17:00:13;21.50;99.90
54272;DHT22;40184;53.362;5.216;2022-09-12T17:02:39;21.50;99.90
54272;DHT22;40184;53.362;5.216;2022-09-12T17:05:05;21.40;99.90
54272;DHT22;40184;53.362;5.216;2022-09-12T17:07:31;21.40;99.90
54272;DHT22;40184;53.362;5.216;2022-09-12T17:09:58;21.40;99.90
54272;DHT22;40184;53.362;5.216;2022-09-12T17:12:24;21.40;99.90
54272;DHT22;40184;53.362;5.216;2022-09-12T17:14:50;21.40;99.90
54272;DHT22;40184;53.362;5.216;2022-09-12T17:17:16;21.30;99.90
54272;DHT22;40184;53.362;5.216;2022-09-12T17:19:41;21.30;99.90
54272;DHT22;40184;53.362;5.216;2022-09-12T17:22:08;21.30;99.90
54272;DHT22;40184;53.362;5.216;2022-09-12T17:24:33;21.30;99.90
54272;DHT22;40184;53.362;5.216;2022-09-12T17:26:59;21.30;99.90
54272;DHT22;40184;53.362;5.216;2022-09-12T17:29:25;21.10;99.90
54272;DHT22;40184;53.362;5.216;2022-09-12T17:31:51;21.20;99.90
54272;DHT22;40184;53.362;5.216;2022-09-12T17:34:16;21.10;99.90
54272;DHT22;40184;53.362;5.216;2022-09-12T17:36:43;21.10;99.90
54272;DHT22;40184;53.362;5.216;2022-09-12T17:39:10;21.10;99.90
54272;DHT22;40184;53.362;5.216;2022-09-12T17:41:36;21.10;99.90
54272;DHT22;40184;53.362;5.216;2022-09-12T17:44:02;21.10;99.90
54272;DHT22;40184;53.362;5.216;2022-09-12T17:46:34;21.00;99.90
54272;DHT22;40184;53.362;5.216;2022-09-12T17:49:01;21.00;99.90
54272;DHT22;40184;53.362;5.216;2022-09-12T17:51:29;21.00;99.90
54272;DHT22;40184;53.362;5.216;2022-09-12T17:54:16;21.00;99.90
54272;DHT22;40184;53.362;5.216;2022-09-12T17:56:43;21.00;99.90
54272;DHT22;40184;53.362;5.216;2022-09-12T17:59:13;20.90;99.90
54272;DHT22;40184;53.362;5.216;2022-09-12T18:01:39;20.90;99.90
54272;DHT22;40184;53.362;5.216;2022-09-12T18:04:24;20.90;99.90
54272;DHT22;40184;53.362;5.216;2022-09-12T18:06:51;20.80;99.90
54272;DHT22;40184;53.362;5.216;2022-09-12T18:09:19;20.90;99.90
54272;DHT22;40184;53.362;5.216;2022-09-12T18:11:46;20.90;99.90
54272;DHT22;40184;53.362;5.216;2022-09-12T18:14:12;20.70;99.90
54272;DHT22;40184;53.362;5.216;2022-09-12T18:16:38;20.70;99.90
54272;DHT22;40184;53.362;5.216;2022-09-12T18:19:03;20.50;99.90
54272;DHT22;40184;53.362;5.216;2022-09-12T18:21:29;20.50;99.90
54272;DHT22;40184;53.362;5.216;2022-09-12T18:23:56;20.20;99.90
54272;DHT22;40184;53.362;5.216;2022-09-12T18:26:24;20.20;99.90
54272;DHT22;40184;53.362;5.216;2022-09-12T18:28:50;20.10;99.90
54272;DHT22;40184;53.362;5.216;2022-09-12T18:31:18;20.00;99.90